sensor_id;sensor_type;location;lat;lon;timestamp;pressure;altitude;pressure_sealevel;temperature;humidity
74594;BME280;63097;51.872;4.460;2023-06-14T00:01:29;101615.97;;;20.08;45.39
74594;BME280;63097;51.872;4.460;2023-06-14T00:03:55;101620.88;;;19.97;45.56
74594;BME280;63097;51.872;4.460;2023-06-14T00:06:20;101618.44;;;19.86;46.46
74594;BME280;63097;51.872;4.460;2023-06-14T00:08:45;101620.66;;;19.89;46.75
74594;BME280;63097;51.872;4.460;2023-06-14T00:11:11;101621.88;;;19.78;46.59
74594;BME280;63097;51.872;4.460;2023-06-14T00:13:36;101618.81;;;19.79;46.93
74594;BME280;63097;51.872;4.460;2023-06-14T00:16:04;101630.28;;;19.88;46.47
74594;BME280;63097;51.872;4.460;2023-06-14T00:18:29;101633.97;;;19.83;46.31
74594;BME280;63097;51.872;4.460;2023-06-14T00:20:55;101625.31;;;19.75;47.10
74594;BME280;63097;51.872;4.460;2023-06-14T00:23:21;101639.38;;;19.85;46.82
74594;BME280;63097;51.872;4.460;2023-06-14T00:25:46;101625.13;;;19.66;47.19
74594;BME280;63097;51.872;4.460;2023-06-14T00:28:12;101631.56;;;19.72;47.87
74594;BME280;63097;51.872;4.460;2023-06-14T00:30:37;101620.84;;;19.69;47.42
74594;BME280;63097;51.872;4.460;2023-06-14T00:33:03;101628.19;;;19.70;47.40
74594;BME280;63097;51.872;4.460;2023-06-14T00:35:28;101627.94;;;19.66;47.95
74594;BME280;63097;51.872;4.460;2023-06-14T00:37:53;101628.25;;;19.65;47.42
74594;BME280;63097;51.872;4.460;2023-06-14T00:40:18;101630.16;;;19.69;48.34
74594;BME280;63097;51.872;4.460;2023-06-14T00:42:44;101621.59;;;19.46;48.46
74594;BME280;63097;51.872;4.460;2023-06-14T00:45:10;101625.28;;;19.41;48.72
74594;BME280;63097;51.872;4.460;2023-06-14T00:47:36;101635.66;;;19.51;49.03
74594;BME280;63097;51.872;4.460;2023-06-14T00:50:03;101620.22;;;19.38;49.21
74594;BME280;63097;51.872;4.460;2023-06-14T00:52:31;101633.47;;;19.43;49.29
74594;BME280;63097;51.872;4.460;2023-06-14T00:54:56;101638.19;;;19.52;49.06
74594;BME280;63097;51.872;4.460;2023-06-14T00:57:21;101631.72;;;19.47;49.40
74594;BME280;63097;51.872;4.460;2023-06-14T00:59:48;101633.78;;;19.36;50.02
74594;BME280;63097;51.872;4.460;2023-06-14T01:02:14;101623.41;;;19.32;49.90
74594;BME280;63097;51.872;4.460;2023-06-14T01:04:40;101623.38;;;19.27;49.38
74594;BME280;63097;51.872;4.460;2023-06-14T01:13:12;101625.13;;;19.23;49.79
74594;BME280;63097;51.872;4.460;2023-06-14T01:15:41;101619.00;;;19.05;50.66
74594;BME280;63097;51.872;4.460;2023-06-14T01:18:08;101617.84;;;19.12;50.49
74594;BME280;63097;51.872;4.460;2023-06-14T01:20:33;101626.59;;;19.05;50.52
74594;BME280;63097;51.872;4.460;2023-06-14T01:22:59;101608.66;;;18.91;50.03
74594;BME280;63097;51.872;4.460;2023-06-14T01:25:25;101630.06;;;18.97;50.18
74594;BME280;63097;51.872;4.460;2023-06-14T01:28:05;101629.19;;;18.96;50.48
74594;BME280;63097;51.872;4.460;2023-06-14T01:30:33;101630.13;;;18.82;50.66
74594;BME280;63097;51.872;4.460;2023-06-14T01:32:59;101626.41;;;18.91;50.26
74594;BME280;63097;51.872;4.460;2023-06-14T01:35:24;101632.06;;;18.91;49.97
74594;BME280;63097;51.872;4.460;2023-06-14T01:37:51;101630.97;;;18.82;50.25
74594;BME280;63097;51.872;4.460;2023-06-14T01:40:18;101618.31;;;18.70;50.09
74594;BME280;63097;51.872;4.460;2023-06-14T01:42:46;101620.00;;;18.76;50.05
74594;BME280;63097;51.872;4.460;2023-06-14T01:45:13;101615.28;;;18.56;50.85
74594;BME280;63097;51.872;4.460;2023-06-14T01:47:40;101617.56;;;18.44;50.75
74594;BME280;63097;51.872;4.460;2023-06-14T01:50:06;101615.31;;;18.51;50.68
74594;BME280;63097;51.872;4.460;2023-06-14T01:52:32;101620.66;;;18.43;51.13
74594;BME280;63097;51.872;4.460;2023-06-14T01:54:57;101615.03;;;18.33;51.39
74594;BME280;63097;51.872;4.460;2023-06-14T01:57:24;101631.09;;;18.32;51.08
74594;BME280;63097;51.872;4.460;2023-06-14T01:59:50;101597.59;;;18.21;51.02
74594;BME280;63097;51.872;4.460;2023-06-14T02:02:15;101612.53;;;18.31;51.05
74594;BME280;63097;51.872;4.460;2023-06-14T02:04:41;101622.13;;;18.20;51.29
74594;BME280;63097;51.872;4.460;2023-06-14T02:07:07;101610.84;;;18.20;50.76
74594;BME280;63097;51.872;4.460;2023-06-14T02:09:33;101631.66;;;18.24;51.17
74594;BME280;63097;51.872;4.460;2023-06-14T02:11:58;101634.19;;;18.21;51.04
74594;BME280;63097;51.872;4.460;2023-06-14T02:14:24;101634.50;;;18.19;51.07
74594;BME280;63097;51.872;4.460;2023-06-14T02:16:49;101636.47;;;18.24;51.09
74594;BME280;63097;51.872;4.460;2023-06-14T02:19:18;101634.50;;;18.19;50.79
74594;BME280;63097;51.872;4.460;2023-06-14T02:21:44;101627.75;;;18.15;51.08
74594;BME280;63097;51.872;4.460;2023-06-14T02:24:10;101626.06;;;18.09;51.17
74594;BME280;63097;51.872;4.460;2023-06-14T02:26:36;101632.53;;;18.04;51.18
74594;BME280;63097;51.872;4.460;2023-06-14T02:29:01;101621.59;;;17.88;51.35
74594;BME280;63097;51.872;4.460;2023-06-14T02:31:26;101639.88;;;18.00;51.20
74594;BME280;63097;51.872;4.460;2023-06-14T02:33:52;101629.72;;;17.89;51.71
74594;BME280;63097;51.872;4.460;2023-06-14T02:36:17;101610.31;;;17.68;51.53
74594;BME280;63097;51.872;4.460;2023-06-14T02:38:42;101643.53;;;17.71;52.22
74594;BME280;63097;51.872;4.460;2023-06-14T02:41:08;101639.91;;;17.85;51.77
74594;BME280;63097;51.872;4.460;2023-06-14T02:43:33;101633.13;;;17.81;51.62
74594;BME280;63097;51.872;4.460;2023-06-14T02:45:58;101609.47;;;17.67;51.42
74594;BME280;63097;51.872;4.460;2023-06-14T02:48:24;101626.38;;;17.77;51.70
74594;BME280;63097;51.872;4.460;2023-06-14T02:50:49;101633.69;;;17.78;52.33
74594;BME280;63097;51.872;4.460;2023-06-14T02:53:14;101631.16;;;17.72;51.98
74594;BME280;63097;51.872;4.460;2023-06-14T02:55:40;101635.09;;;17.76;53.08
74594;BME280;63097;51.872;4.460;2023-06-14T02:58:06;101624.97;;;17.60;53.06
74594;BME280;63097;51.872;4.460;2023-06-14T03:00:31;101632.56;;;17.79;52.09
74594;BME280;63097;51.872;4.460;2023-06-14T03:02:56;101623.28;;;17.59;52.67
74594;BME280;63097;51.872;4.460;2023-06-14T03:05:23;101641.84;;;17.65;52.32
74594;BME280;63097;51.872;4.460;2023-06-14T03:07:49;101642.41;;;17.57;52.90
74594;BME280;63097;51.872;4.460;2023-06-14T03:10:14;101620.75;;;17.52;52.55
74594;BME280;63097;51.872;4.460;2023-06-14T03:12:39;101644.09;;;17.58;52.55
74594;BME280;63097;51.872;4.460;2023-06-14T03:15:06;101651.44;;;17.74;52.50
74594;BME280;63097;51.872;4.460;2023-06-14T03:17:32;101655.91;;;17.55;53.40
74594;BME280;63097;51.872;4.460;2023-06-14T03:19:57;101662.38;;;17.65;52.63
74594;BME280;63097;51.872;4.460;2023-06-14T03:22:22;101646.28;;;17.41;53.87
74594;BME280;63097;51.872;4.460;2023-06-14T03:24:48;101649.69;;;17.48;53.15
74594;BME280;63097;51.872;4.460;2023-06-14T03:27:13;101667.06;;;17.35;53.36
74594;BME280;63097;51.872;4.460;2023-06-14T03:29:38;101672.72;;;17.40;53.96
74594;BME280;63097;51.872;4.460;2023-06-14T03:32:04;101649.06;;;17.31;53.42
74594;BME280;63097;51.872;4.460;2023-06-14T03:34:29;101676.91;;;17.27;54.09
74594;BME280;63097;51.872;4.460;2023-06-14T03:36:55;101675.50;;;17.30;54.13
74594;BME280;63097;51.872;4.460;2023-06-14T03:39:20;101669.59;;;17.26;53.42
74594;BME280;63097;51.872;4.460;2023-06-14T03:41:46;101693.19;;;17.25;54.35
74594;BME280;63097;51.872;4.460;2023-06-14T03:44:11;101680.84;;;17.36;53.83
74594;BME280;63097;51.872;4.460;2023-06-14T03:46:36;101664.78;;;17.22;53.90
74594;BME280;63097;51.872;4.460;2023-06-14T03:49:02;101687.91;;;17.34;54.17
74594;BME280;63097;51.872;4.460;2023-06-14T03:51:28;101682.56;;;17.32;54.00
74594;BME280;63097;51.872;4.460;2023-06-14T03:53:53;101687.91;;;17.34;53.91
74594;BME280;63097;51.872;4.460;2023-06-14T03:56:18;101682.00;;;17.30;54.30
74594;BME280;63097;51.872;4.460;2023-06-14T03:58:45;101682.00;;;17.35;53.61
74594;BME280;63097;51.872;4.460;2023-06-14T04:01:10;101673.84;;;17.34;52.98
74594;BME280;63097;51.872;4.460;2023-06-14T04:03:36;101692.72;;;17.43;53.18
74594;BME280;63097;51.872;4.460;2023-06-14T04:06:01;101689.38;;;17.51;52.66
74594;BME280;63097;51.872;4.460;2023-06-14T04:08:29;101665.13;;;17.35;52.85
74594;BME280;63097;51.872;4.460;2023-06-14T04:10:54;101695.28;;;17.50;53.38
74594;BME280;63097;51.872;4.460;2023-06-14T04:13:20;101682.28;;;17.34;53.71
74594;BME280;63097;51.872;4.460;2023-06-14T04:15:45;101703.06;;;17.33;53.32
74594;BME280;63097;51.872;4.460;2023-06-14T04:18:10;101700.84;;;17.35;53.70
74594;BME280;63097;51.872;4.460;2023-06-14T04:20:37;101695.75;;;17.27;53.33
74594;BME280;63097;51.872;4.460;2023-06-14T04:23:16;101707.31;;;17.35;53.51
74594;BME280;63097;51.872;4.460;2023-06-14T04:25:42;101710.13;;;17.45;53.81
74594;BME280;63097;51.872;4.460;2023-06-14T04:28:07;101696.41;;;17.49;52.93
74594;BME280;63097;51.872;4.460;2023-06-14T04:30:32;101694.69;;;17.43;53.15
74594;BME280;63097;51.872;4.460;2023-06-14T04:32:58;101708.22;;;17.51;52.82
74594;BME280;63097;51.872;4.460;2023-06-14T04:35:23;101708.81;;;17.63;52.94
74594;BME280;63097;51.872;4.460;2023-06-14T04:37:48;101689.09;;;17.53;52.80
74594;BME280;63097;51.872;4.460;2023-06-14T04:40:14;101708.25;;;17.66;52.28
74594;BME280;63097;51.872;4.460;2023-06-14T04:42:39;101696.41;;;17.64;52.11
74594;BME280;63097;51.872;4.460;2023-06-14T04:45:05;101711.09;;;17.76;52.50
74594;BME280;63097;51.872;4.460;2023-06-14T04:47:30;101700.97;;;17.85;52.20
74594;BME280;63097;51.872;4.460;2023-06-14T04:49:57;101699.56;;;17.77;52.99
74594;BME280;63097;51.872;4.460;2023-06-14T04:52:22;101714.75;;;17.91;51.99
74594;BME280;63097;51.872;4.460;2023-06-14T04:54:47;101707.72;;;17.94;51.55
74594;BME280;63097;51.872;4.460;2023-06-14T04:57:13;101699.56;;;17.92;51.65
74594;BME280;63097;51.872;4.460;2023-06-14T04:59:38;101705.44;;;17.91;51.76
74594;BME280;63097;51.872;4.460;2023-06-14T05:02:03;101715.34;;;18.03;50.83
74594;BME280;63097;51.872;4.460;2023-06-14T05:04:29;101699.84;;;18.01;50.97
74594;BME280;63097;51.872;4.460;2023-06-14T05:06:54;101718.41;;;18.02;51.40
74594;BME280;63097;51.872;4.460;2023-06-14T05:09:20;101711.69;;;18.18;51.17
74594;BME280;63097;51.872;4.460;2023-06-14T05:11:45;101726.03;;;18.12;51.32
74594;BME280;63097;51.872;4.460;2023-06-14T05:14:11;101719.25;;;18.23;50.69
74594;BME280;63097;51.872;4.460;2023-06-14T05:16:37;101713.06;;;18.21;50.74
74594;BME280;63097;51.872;4.460;2023-06-14T05:19:03;101720.97;;;18.24;50.65
74594;BME280;63097;51.872;4.460;2023-06-14T05:21:28;101721.53;;;18.26;50.35
74594;BME280;63097;51.872;4.460;2023-06-14T05:23:54;101713.06;;;18.16;50.43
74594;BME280;63097;51.872;4.460;2023-06-14T05:26:19;101735.59;;;18.36;50.33
74594;BME280;63097;51.872;4.460;2023-06-14T05:28:44;101739.53;;;18.40;50.42
74594;BME280;63097;51.872;4.460;2023-06-14T05:31:10;101727.72;;;18.38;50.42
74594;BME280;63097;51.872;4.460;2023-06-14T05:33:35;101738.16;;;18.47;50.57
74594;BME280;63097;51.872;4.460;2023-06-14T05:36:00;101733.66;;;18.51;51.20
74594;BME280;63097;51.872;4.460;2023-06-14T05:38:26;101727.13;;;18.61;49.61
74594;BME280;63097;51.872;4.460;2023-06-14T05:40:51;101723.75;;;18.69;49.05
74594;BME280;63097;51.872;4.460;2023-06-14T05:43:16;101729.38;;;18.59;48.97
74594;BME280;63097;51.872;4.460;2023-06-14T05:45:42;101745.97;;;18.75;48.89
74594;BME280;63097;51.872;4.460;2023-06-14T05:48:07;101721.75;;;18.74;49.47
74594;BME280;63097;51.872;4.460;2023-06-14T05:50:32;101744.56;;;18.88;48.46
74594;BME280;63097;51.872;4.460;2023-06-14T05:52:57;101731.28;;;18.93;47.75
74594;BME280;63097;51.872;4.460;2023-06-14T05:55:23;101747.34;;;18.98;47.68
74594;BME280;63097;51.872;4.460;2023-06-14T05:57:48;101749.91;;;18.89;48.23
74594;BME280;63097;51.872;4.460;2023-06-14T06:00:14;101728.47;;;18.93;48.34
74594;BME280;63097;51.872;4.460;2023-06-14T06:02:43;101734.06;;;19.03;47.82
74594;BME280;63097;51.872;4.460;2023-06-14T06:05:09;101735.47;;;19.06;47.75
74594;BME280;63097;51.872;4.460;2023-06-14T06:07:35;101738.50;;;19.20;48.41
74594;BME280;63097;51.872;4.460;2023-06-14T06:10:00;101744.41;;;19.28;47.17
74594;BME280;63097;51.872;4.460;2023-06-14T06:12:25;101728.88;;;19.36;48.30
74594;BME280;63097;51.872;4.460;2023-06-14T06:14:51;101739.19;;;19.60;46.78
74594;BME280;63097;51.872;4.460;2023-06-14T06:17:16;101758.66;;;19.62;48.07
74594;BME280;63097;51.872;4.460;2023-06-14T06:19:41;101751.94;;;19.96;46.30
74594;BME280;63097;51.872;4.460;2023-06-14T06:22:06;101748.84;;;19.93;46.17
74594;BME280;63097;51.872;4.460;2023-06-14T06:24:32;101750.28;;;19.90;46.66
74594;BME280;63097;51.872;4.460;2023-06-14T06:26:57;101727.97;;;19.89;46.34
74594;BME280;63097;51.872;4.460;2023-06-14T06:29:23;101758.25;;;20.22;46.09
74594;BME280;63097;51.872;4.460;2023-06-14T06:31:48;101761.97;;;20.18;46.17
74594;BME280;63097;51.872;4.460;2023-06-14T06:34:13;101753.09;;;20.34;45.99
74594;BME280;63097;51.872;4.460;2023-06-14T06:36:39;101759.47;;;20.45;46.34
74594;BME280;63097;51.872;4.460;2023-06-14T06:39:04;101761.72;;;20.48;46.53
74594;BME280;63097;51.872;4.460;2023-06-14T06:41:29;101736.97;;;20.63;45.91
74594;BME280;63097;51.872;4.460;2023-06-14T06:43:54;101769.31;;;20.81;45.84
74594;BME280;63097;51.872;4.460;2023-06-14T06:46:20;101772.59;;;20.93;46.11
74594;BME280;63097;51.872;4.460;2023-06-14T06:48:45;101757.25;;;21.23;44.59
74594;BME280;63097;51.872;4.460;2023-06-14T06:51:10;101784.75;;;21.17;44.77
74594;BME280;63097;51.872;4.460;2023-06-14T06:53:36;101788.34;;;20.99;45.22
74594;BME280;63097;51.872;4.460;2023-06-14T06:56:02;101783.16;;;21.35;45.13
74594;BME280;63097;51.872;4.460;2023-06-14T06:58:28;101771.06;;;21.06;45.79
74594;BME280;63097;51.872;4.460;2023-06-14T07:00:53;101796.47;;;21.34;44.43
74594;BME280;63097;51.872;4.460;2023-06-14T07:03:18;101793.69;;;21.29;44.65
74594;BME280;63097;51.872;4.460;2023-06-14T07:05:43;101783.47;;;21.33;44.70
74594;BME280;63097;51.872;4.460;2023-06-14T07:08:09;101792.28;;;21.92;44.41
74594;BME280;63097;51.872;4.460;2023-06-14T07:10:34;101799.31;;;21.76;44.61
74594;BME280;63097;51.872;4.460;2023-06-14T07:12:59;101788.34;;;21.70;44.31
74594;BME280;63097;51.872;4.460;2023-06-14T07:15:25;101800.88;;;22.43;42.52
74594;BME280;63097;51.872;4.460;2023-06-14T07:17:50;101803.72;;;22.06;43.47
74594;BME280;63097;51.872;4.460;2023-06-14T07:20:15;101818.78;;;22.02;43.45
74594;BME280;63097;51.872;4.460;2023-06-14T07:22:41;101809.75;;;22.37;42.69
74594;BME280;63097;51.872;4.460;2023-06-14T07:25:11;101803.50;;;22.21;43.14
74594;BME280;63097;51.872;4.460;2023-06-14T07:27:36;101785.31;;;22.22;43.07
74594;BME280;63097;51.872;4.460;2023-06-14T07:30:02;101803.53;;;22.85;41.82
74594;BME280;63097;51.872;4.460;2023-06-14T07:32:27;101794.84;;;22.95;41.87
74594;BME280;63097;51.872;4.460;2023-06-14T07:34:52;101802.50;;;22.95;41.76
74594;BME280;63097;51.872;4.460;2023-06-14T07:37:18;101823.22;;;22.95;40.80
74594;BME280;63097;51.872;4.460;2023-06-14T07:39:43;101808.63;;;23.16;39.78
74594;BME280;63097;51.872;4.460;2023-06-14T07:44:33;101817.31;;;23.65;39.52
74594;BME280;63097;51.872;4.460;2023-06-14T07:46:59;101816.03;;;23.71;39.14
74594;BME280;63097;51.872;4.460;2023-06-14T07:49:24;101802.69;;;23.44;39.60
74594;BME280;63097;51.872;4.460;2023-06-14T07:51:51;101816.38;;;23.69;40.00
74594;BME280;63097;51.872;4.460;2023-06-14T07:54:16;101815.19;;;23.70;39.62
74594;BME280;63097;51.872;4.460;2023-06-14T07:56:42;101804.28;;;23.64;40.07
74594;BME280;63097;51.872;4.460;2023-06-14T07:59:07;101824.25;;;23.32;39.94
74594;BME280;63097;51.872;4.460;2023-06-14T08:01:32;101826.78;;;23.47;39.37
74594;BME280;63097;51.872;4.460;2023-06-14T08:03:58;101819.63;;;23.76;39.46
74594;BME280;63097;51.872;4.460;2023-06-14T08:06:23;101836.75;;;23.85;39.71
74594;BME280;63097;51.872;4.460;2023-06-14T08:08:48;101831.88;;;23.99;38.84
74594;BME280;63097;51.872;4.460;2023-06-14T08:11:13;101821.16;;;24.10;38.98
74594;BME280;63097;51.872;4.460;2023-06-14T08:13:39;101816.31;;;24.10;38.38
74594;BME280;63097;51.872;4.460;2023-06-14T08:16:04;101824.53;;;23.98;38.65
74594;BME280;63097;51.872;4.460;2023-06-14T08:18:29;101836.16;;;24.37;39.00
74594;BME280;63097;51.872;4.460;2023-06-14T08:20:56;101831.31;;;24.82;38.55
74594;BME280;63097;51.872;4.460;2023-06-14T08:23:21;101838.91;;;25.17;37.91
74594;BME280;63097;51.872;4.460;2023-06-14T08:25:47;101836.78;;;24.56;38.28
74594;BME280;63097;51.872;4.460;2023-06-14T08:28:12;101848.69;;;24.58;38.27
74594;BME280;63097;51.872;4.460;2023-06-14T08:30:37;101836.50;;;24.80;37.14
74594;BME280;63097;51.872;4.460;2023-06-14T08:33:03;101841.91;;;25.12;36.90
74594;BME280;63097;51.872;4.460;2023-06-14T08:35:28;101830.03;;;25.19;36.36
74594;BME280;63097;51.872;4.460;2023-06-14T08:37:53;101847.13;;;25.19;36.32
74594;BME280;63097;51.872;4.460;2023-06-14T08:40:21;101832.69;;;24.84;36.37
74594;BME280;63097;51.872;4.460;2023-06-14T08:42:51;101830.53;;;25.12;35.90
74594;BME280;63097;51.872;4.460;2023-06-14T08:45:18;101835.63;;;25.02;35.63
74594;BME280;63097;51.872;4.460;2023-06-14T08:47:43;101826.13;;;25.06;35.75
74594;BME280;63097;51.872;4.460;2023-06-14T08:50:09;101839.94;;;25.43;35.55
74594;BME280;63097;51.872;4.460;2023-06-14T08:52:37;101828.66;;;25.38;35.44
74594;BME280;63097;51.872;4.460;2023-06-14T08:55:03;101835.22;;;25.95;35.22
74594;BME280;63097;51.872;4.460;2023-06-14T08:57:29;101822.38;;;26.15;34.03
74594;BME280;63097;51.872;4.460;2023-06-14T08:59:55;101835.88;;;25.83;34.28
74594;BME280;63097;51.872;4.460;2023-06-14T09:02:20;101831.28;;;26.30;33.49
74594;BME280;63097;51.872;4.460;2023-06-14T09:04:46;101843.66;;;26.09;34.96
74594;BME280;63097;51.872;4.460;2023-06-14T09:07:11;101841.50;;;26.14;34.15
74594;BME280;63097;51.872;4.460;2023-06-14T09:09:40;101845.19;;;26.15;35.01
74594;BME280;63097;51.872;4.460;2023-06-14T09:12:08;101845.03;;;26.11;34.54
74594;BME280;63097;51.872;4.460;2023-06-14T09:14:33;101842.38;;;26.66;33.73
74594;BME280;63097;51.872;4.460;2023-06-14T09:16:58;101833.81;;;26.49;33.15
74594;BME280;63097;51.872;4.460;2023-06-14T09:19:24;101823.56;;;26.82;32.99
74594;BME280;63097;51.872;4.460;2023-06-14T09:21:49;101846.38;;;26.39;33.06
74594;BME280;63097;51.872;4.460;2023-06-14T09:24:15;101849.44;;;26.51;33.04
74594;BME280;63097;51.872;4.460;2023-06-14T09:26:41;101855.78;;;26.65;32.76
74594;BME280;63097;51.872;4.460;2023-06-14T09:29:06;101867.69;;;27.19;31.16
74594;BME280;63097;51.872;4.460;2023-06-14T09:31:32;101837.66;;;26.96;31.84
74594;BME280;63097;51.872;4.460;2023-06-14T09:33:57;101849.09;;;26.96;32.42
74594;BME280;63097;51.872;4.460;2023-06-14T09:36:24;101866.97;;;27.76;31.31
74594;BME280;63097;51.872;4.460;2023-06-14T09:39:01;101852.69;;;27.76;30.52
74594;BME280;63097;51.872;4.460;2023-06-14T09:43:59;101862.13;;;28.06;28.60
74594;BME280;63097;51.872;4.460;2023-06-14T09:46:25;101845.47;;;28.08;28.47
74594;BME280;63097;51.872;4.460;2023-06-14T09:48:50;101846.81;;;28.11;29.96
74594;BME280;63097;51.872;4.460;2023-06-14T09:51:16;101863.22;;;27.93;28.99
74594;BME280;63097;51.872;4.460;2023-06-14T09:53:43;101851.28;;;28.41;30.25
74594;BME280;63097;51.872;4.460;2023-06-14T09:56:11;101869.84;;;28.14;29.44
74594;BME280;63097;51.872;4.460;2023-06-14T09:58:39;101862.66;;;28.29;29.08
74594;BME280;63097;51.872;4.460;2023-06-14T10:01:06;101866.38;;;28.91;27.58
74594;BME280;63097;51.872;4.460;2023-06-14T10:03:34;101870.75;;;28.27;29.19
74594;BME280;63097;51.872;4.460;2023-06-14T10:06:02;101865.53;;;28.70;28.86
74594;BME280;63097;51.872;4.460;2023-06-14T10:08:30;101865.69;;;28.73;27.95
74594;BME280;63097;51.872;4.460;2023-06-14T10:10:56;101867.25;;;29.04;27.51
74594;BME280;63097;51.872;4.460;2023-06-14T10:13:21;101860.66;;;28.70;27.97
74594;BME280;63097;51.872;4.460;2023-06-14T10:16:15;101864.13;;;29.29;26.97
74594;BME280;63097;51.872;4.460;2023-06-14T10:18:48;101863.28;;;29.74;27.64
74594;BME280;63097;51.872;4.460;2023-06-14T10:21:31;101869.03;;;29.29;27.51
74594;BME280;63097;51.872;4.460;2023-06-14T10:24:01;101849.22;;;29.36;26.53
74594;BME280;63097;51.872;4.460;2023-06-14T10:26:28;101853.84;;;29.73;26.66
74594;BME280;63097;51.872;4.460;2023-06-14T10:28:59;101851.19;;;29.68;26.21
74594;BME280;63097;51.872;4.460;2023-06-14T10:31:43;101858.09;;;29.67;26.03
74594;BME280;63097;51.872;4.460;2023-06-14T10:34:09;101856.44;;;29.66;25.60
74594;BME280;63097;51.872;4.460;2023-06-14T10:36:35;101860.75;;;30.20;25.58
74594;BME280;63097;51.872;4.460;2023-06-14T10:41:35;101872.97;;;30.29;25.32
74594;BME280;63097;51.872;4.460;2023-06-14T10:46:56;101857.13;;;30.47;23.30
74594;BME280;63097;51.872;4.460;2023-06-14T10:49:43;101850.59;;;30.23;23.93
74594;BME280;63097;51.872;4.460;2023-06-14T10:52:13;101856.00;;;30.64;23.70
74594;BME280;63097;51.872;4.460;2023-06-14T10:55:04;101852.13;;;30.84;22.44
74594;BME280;63097;51.872;4.460;2023-06-14T10:57:30;101861.50;;;30.69;24.29
74594;BME280;63097;51.872;4.460;2023-06-14T10:59:55;101863.50;;;30.41;23.69
74594;BME280;63097;51.872;4.460;2023-06-14T11:05:28;101858.13;;;30.39;23.11
74594;BME280;63097;51.872;4.460;2023-06-14T11:10:59;101864.22;;;31.33;23.81
74594;BME280;63097;51.872;4.460;2023-06-14T11:13:25;101840.91;;;31.66;22.23
74594;BME280;63097;51.872;4.460;2023-06-14T11:15:51;101853.41;;;31.89;23.95
74594;BME280;63097;51.872;4.460;2023-06-14T11:18:16;101854.09;;;32.32;22.09
74594;BME280;63097;51.872;4.460;2023-06-14T11:20:41;101853.63;;;31.96;20.82
74594;BME280;63097;51.872;4.460;2023-06-14T11:23:07;101856.09;;;31.82;21.15
74594;BME280;63097;51.872;4.460;2023-06-14T11:25:32;101840.53;;;32.33;21.45
74594;BME280;63097;51.872;4.460;2023-06-14T11:27:58;101858.34;;;31.88;21.43
74594;BME280;63097;51.872;4.460;2023-06-14T11:30:23;101857.22;;;32.08;21.80
74594;BME280;63097;51.872;4.460;2023-06-14T11:32:50;101842.47;;;31.63;21.46
74594;BME280;63097;51.872;4.460;2023-06-14T11:35:16;101837.75;;;31.55;22.26
74594;BME280;63097;51.872;4.460;2023-06-14T11:37:42;101856.75;;;32.76;19.78
74594;BME280;63097;51.872;4.460;2023-06-14T11:40:08;101846.16;;;32.80;20.01
74594;BME280;63097;51.872;4.460;2023-06-14T11:42:34;101846.28;;;31.98;21.77
74594;BME280;63097;51.872;4.460;2023-06-14T11:44:59;101836.25;;;32.42;22.71
74594;BME280;63097;51.872;4.460;2023-06-14T11:47:24;101818.56;;;32.98;20.26
74594;BME280;63097;51.872;4.460;2023-06-14T11:49:56;101842.56;;;32.86;21.34
74594;BME280;63097;51.872;4.460;2023-06-14T11:52:23;101848.88;;;32.73;20.20
74594;BME280;63097;51.872;4.460;2023-06-14T11:54:48;101848.66;;;32.81;22.83
74594;BME280;63097;51.872;4.460;2023-06-14T11:57:15;101850.16;;;32.75;20.53
74594;BME280;63097;51.872;4.460;2023-06-14T11:59:43;101843.72;;;32.82;21.18
74594;BME280;63097;51.872;4.460;2023-06-14T12:02:10;101839.47;;;33.14;22.10
74594;BME280;63097;51.872;4.460;2023-06-14T12:04:41;101848.31;;;33.24;20.34
74594;BME280;63097;51.872;4.460;2023-06-14T12:09:35;101837.63;;;32.48;21.33
74594;BME280;63097;51.872;4.460;2023-06-14T12:12:00;101819.03;;;33.22;20.11
74594;BME280;63097;51.872;4.460;2023-06-14T12:14:30;101836.91;;;33.31;20.02
74594;BME280;63097;51.872;4.460;2023-06-14T12:17:07;101840.56;;;34.19;19.55
74594;BME280;63097;51.872;4.460;2023-06-14T12:19:33;101833.91;;;33.92;19.17
74594;BME280;63097;51.872;4.460;2023-06-14T12:22:05;101835.03;;;33.84;19.27
74594;BME280;63097;51.872;4.460;2023-06-14T12:24:32;101837.97;;;33.01;19.49
74594;BME280;63097;51.872;4.460;2023-06-14T12:26:58;101809.44;;;32.58;20.93
74594;BME280;63097;51.872;4.460;2023-06-14T12:29:23;101835.84;;;33.39;21.00
74594;BME280;63097;51.872;4.460;2023-06-14T12:31:48;101837.19;;;33.68;20.99
74594;BME280;63097;51.872;4.460;2023-06-14T12:34:14;101828.28;;;33.99;19.77
74594;BME280;63097;51.872;4.460;2023-06-14T12:36:41;101852.31;;;34.89;18.52
74594;BME280;63097;51.872;4.460;2023-06-14T12:39:06;101836.25;;;34.62;18.56
74594;BME280;63097;51.872;4.460;2023-06-14T12:41:32;101837.66;;;34.45;18.73
74594;BME280;63097;51.872;4.460;2023-06-14T12:43:58;101841.31;;;34.16;19.55
74594;BME280;63097;51.872;4.460;2023-06-14T12:46:23;101824.56;;;33.76;18.78
74594;BME280;63097;51.872;4.460;2023-06-14T12:48:48;101819.75;;;33.61;19.13
74594;BME280;63097;51.872;4.460;2023-06-14T12:51:14;101834.59;;;33.60;19.99
74594;BME280;63097;51.872;4.460;2023-06-14T12:53:39;101829.47;;;33.30;20.34
74594;BME280;63097;51.872;4.460;2023-06-14T12:56:04;101835.91;;;34.67;17.71
74594;BME280;63097;51.872;4.460;2023-06-14T12:58:30;101836.25;;;35.28;17.37
74594;BME280;63097;51.872;4.460;2023-06-14T13:00:55;101836.44;;;34.76;17.79
74594;BME280;63097;51.872;4.460;2023-06-14T13:03:20;101827.47;;;35.17;16.88
74594;BME280;63097;51.872;4.460;2023-06-14T13:05:46;101826.59;;;35.50;16.93
74594;BME280;63097;51.872;4.460;2023-06-14T13:08:11;101829.16;;;35.59;17.48
74594;BME280;63097;51.872;4.460;2023-06-14T13:10:36;101850.84;;;35.38;20.53